sensor_id;sensor_type;location;lat;lon;timestamp;P1;durP1;ratioP1;P2;durP2;ratioP2
14030;SDS011;7090;49.436;8.490;2023-09-12T00:01:04;3.72;;;3.63;;
14030;SDS011;7090;49.436;8.490;2023-09-12T00:03:31;3.90;;;3.80;;
14030;SDS011;7090;49.436;8.490;2023-09-12T00:05:58;3.90;;;3.80;;
14030;SDS011;7090;49.436;8.490;2023-09-12T00:08:25;4.03;;;3.92;;
14030;SDS011;7090;49.436;8.490;2023-09-12T00:13:30;4.57;;;4.47;;
14030;SDS011;7090;49.436;8.490;2023-09-12T00:15:56;4.47;;;4.38;;
14030;SDS011;7090;49.436;8.490;2023-09-12T00:18:22;4.47;;;4.38;;
14030;SDS011;7090;49.436;8.490;2023-09-12T00:20:47;4.20;;;4.10;;
14030;SDS011;7090;49.436;8.490;2023-09-12T00:23:14;4.38;;;4.28;;
14030;SDS011;7090;49.436;8.490;2023-09-12T00:25:39;4.20;;;4.10;;
14030;SDS011;7090;49.436;8.490;2023-09-12T00:28:05;4.00;;;3.90;;
14030;SDS011;7090;49.436;8.490;2023-09-12T00:30:30;4.30;;;4.20;;
14030;SDS011;7090;49.436;8.490;2023-09-12T00:32:56;4.18;;;4.07;;
14030;SDS011;7090;49.436;8.490;2023-09-12T00:35:21;4.07;;;3.97;;
14030;SDS011;7090;49.436;8.490;2023-09-12T00:37:47;3.90;;;3.80;;
14030;SDS011;7090;49.436;8.490;2023-09-12T00:40:12;3.60;;;3.50;;
14030;SDS011;7090;49.436;8.490;2023-09-12T00:42:38;3.70;;;3.60;;
14030;SDS011;7090;49.436;8.490;2023-09-12T00:45:04;3.42;;;3.33;;
14030;SDS011;7090;49.436;8.490;2023-09-12T00:47:29;3.50;;;3.40;;
14030;SDS011;7090;49.436;8.490;2023-09-12T00:49:56;3.42;;;3.33;;
14030;SDS011;7090;49.436;8.490;2023-09-12T00:52:26;3.60;;;3.50;;
14030;SDS011;7090;49.436;8.490;2023-09-12T00:54:53;3.47;;;3.38;;
14030;SDS011;7090;49.436;8.490;2023-09-12T00:57:19;3.50;;;3.40;;
14030;SDS011;7090;49.436;8.490;2023-09-12T00:59:47;3.50;;;3.40;;
14030;SDS011;7090;49.436;8.490;2023-09-12T01:02:13;3.47;;;3.38;;
14030;SDS011;7090;49.436;8.490;2023-09-12T01:04:39;3.55;;;3.45;;
14030;SDS011;7090;49.436;8.490;2023-09-12T01:07:05;3.80;;;3.70;;
14030;SDS011;7090;49.436;8.490;2023-09-12T01:09:31;3.78;;;3.67;;
14030;SDS011;7090;49.436;8.490;2023-09-12T01:11:57;3.67;;;3.58;;
14030;SDS011;7090;49.436;8.490;2023-09-12T01:14:24;3.60;;;3.50;;
14030;SDS011;7090;49.436;8.490;2023-09-12T01:16:50;3.90;;;3.80;;
14030;SDS011;7090;49.436;8.490;2023-09-12T01:19:16;3.80;;;3.70;;
14030;SDS011;7090;49.436;8.490;2023-09-12T01:27:18;3.20;;;3.10;;
14030;SDS011;7090;49.436;8.490;2023-09-12T01:29:44;3.08;;;2.97;;
14030;SDS011;7090;49.436;8.490;2023-09-12T01:32:12;2.90;;;2.80;;
14030;SDS011;7090;49.436;8.490;2023-09-12T01:34:39;2.95;;;2.85;;
14030;SDS011;7090;49.436;8.490;2023-09-12T01:37:05;2.95;;;2.85;;
14030;SDS011;7090;49.436;8.490;2023-09-12T01:39:30;2.90;;;2.80;;
14030;SDS011;7090;49.436;8.490;2023-09-12T01:41:56;3.00;;;2.90;;
14030;SDS011;7090;49.436;8.490;2023-09-12T01:44:24;3.10;;;3.00;;
14030;SDS011;7090;49.436;8.490;2023-09-12T01:46:53;3.10;;;3.00;;
14030;SDS011;7090;49.436;8.490;2023-09-12T01:49:21;3.10;;;3.00;;
14030;SDS011;7090;49.436;8.490;2023-09-12T01:51:48;3.17;;;3.08;;
14030;SDS011;7090;49.436;8.490;2023-09-12T01:54:15;3.50;;;3.40;;
14030;SDS011;7090;49.436;8.490;2023-09-12T01:56:41;4.00;;;3.90;;
14030;SDS011;7090;49.436;8.490;2023-09-12T01:59:07;3.95;;;3.78;;
14030;SDS011;7090;49.436;8.490;2023-09-12T02:01:33;3.40;;;3.30;;
14030;SDS011;7090;49.436;8.490;2023-09-12T02:03:59;2.90;;;2.80;;
14030;SDS011;7090;49.436;8.490;2023-09-12T02:06:24;2.90;;;2.80;;
14030;SDS011;7090;49.436;8.490;2023-09-12T02:08:50;3.00;;;2.90;;
14030;SDS011;7090;49.436;8.490;2023-09-12T02:11:15;3.50;;;3.40;;
14030;SDS011;7090;49.436;8.490;2023-09-12T02:13:41;4.90;;;4.60;;
14030;SDS011;7090;49.436;8.490;2023-09-12T02:16:07;4.38;;;4.22;;
14030;SDS011;7090;49.436;8.490;2023-09-12T02:18:32;3.85;;;3.75;;
14030;SDS011;7090;49.436;8.490;2023-09-12T02:20:58;4.05;;;3.95;;
14030;SDS011;7090;49.436;8.490;2023-09-12T02:23:23;4.50;;;4.35;;
14030;SDS011;7090;49.436;8.490;2023-09-12T02:25:52;4.20;;;4.10;;
14030;SDS011;7090;49.436;8.490;2023-09-12T02:28:18;4.40;;;4.30;;
14030;SDS011;7090;49.436;8.490;2023-09-12T02:30:43;4.13;;;4.03;;
14030;SDS011;7090;49.436;8.490;2023-09-12T02:33:09;6.20;;;5.80;;
14030;SDS011;7090;49.436;8.490;2023-09-12T02:35:34;4.15;;;4.05;;
14030;SDS011;7090;49.436;8.490;2023-09-12T02:38:00;4.03;;;3.83;;
14030;SDS011;7090;49.436;8.490;2023-09-12T02:40:26;5.57;;;5.28;;
14030;SDS011;7090;49.436;8.490;2023-09-12T02:42:51;3.40;;;3.30;;
14030;SDS011;7090;49.436;8.490;2023-09-12T02:45:17;5.97;;;5.57;;
14030;SDS011;7090;49.436;8.490;2023-09-12T02:47:42;3.75;;;3.65;;
14030;SDS011;7090;49.436;8.490;2023-09-12T02:50:08;2.80;;;2.70;;
14030;SDS011;7090;49.436;8.490;2023-09-12T02:52:34;3.00;;;2.90;;
14030;SDS011;7090;49.436;8.490;2023-09-12T02:55:00;3.10;;;3.00;;
14030;SDS011;7090;49.436;8.490;2023-09-12T02:57:25;4.43;;;4.00;;
14030;SDS011;7090;49.436;8.490;2023-09-12T02:59:51;2.75;;;2.65;;
14030;SDS011;7090;49.436;8.490;2023-09-12T03:02:16;2.75;;;2.65;;
14030;SDS011;7090;49.436;8.490;2023-09-12T03:04:42;2.63;;;2.53;;
14030;SDS011;7090;49.436;8.490;2023-09-12T03:07:07;2.50;;;2.40;;
14030;SDS011;7090;49.436;8.490;2023-09-12T03:09:33;3.53;;;3.03;;
14030;SDS011;7090;49.436;8.490;2023-09-12T03:12:00;4.45;;;4.25;;
14030;SDS011;7090;49.436;8.490;2023-09-12T03:14:27;2.60;;;2.50;;
14030;SDS011;7090;49.436;8.490;2023-09-12T03:16:53;2.50;;;2.40;;
14030;SDS011;7090;49.436;8.490;2023-09-12T03:19:19;2.65;;;2.55;;
14030;SDS011;7090;49.436;8.490;2023-09-12T03:21:45;5.40;;;4.78;;
14030;SDS011;7090;49.436;8.490;2023-09-12T03:24:10;4.25;;;4.03;;
14030;SDS011;7090;49.436;8.490;2023-09-12T03:26:36;9.15;;;5.50;;
14030;SDS011;7090;49.436;8.490;2023-09-12T03:29:02;3.30;;;3.20;;
14030;SDS011;7090;49.436;8.490;2023-09-12T03:31:29;3.47;;;3.38;;
14030;SDS011;7090;49.436;8.490;2023-09-12T03:33:54;3.58;;;3.45;;
14030;SDS011;7090;49.436;8.490;2023-09-12T03:36:20;2.70;;;2.60;;
14030;SDS011;7090;49.436;8.490;2023-09-12T03:38:46;3.25;;;3.15;;
14030;SDS011;7090;49.436;8.490;2023-09-12T03:41:11;3.72;;;3.53;;
14030;SDS011;7090;49.436;8.490;2023-09-12T03:43:37;2.92;;;2.83;;
14030;SDS011;7090;49.436;8.490;2023-09-12T03:46:03;3.40;;;3.30;;
14030;SDS011;7090;49.436;8.490;2023-09-12T03:48:29;7.78;;;4.30;;
14030;SDS011;7090;49.436;8.490;2023-09-12T03:50:59;3.85;;;3.65;;
14030;SDS011;7090;49.436;8.490;2023-09-12T03:53:24;4.82;;;4.53;;
14030;SDS011;7090;49.436;8.490;2023-09-12T03:55:51;4.60;;;4.32;;
14030;SDS011;7090;49.436;8.490;2023-09-12T03:58:17;2.97;;;2.88;;
14030;SDS011;7090;49.436;8.490;2023-09-12T04:00:43;3.28;;;3.08;;
14030;SDS011;7090;49.436;8.490;2023-09-12T04:03:08;4.47;;;4.20;;
14030;SDS011;7090;49.436;8.490;2023-09-12T04:05:34;2.83;;;2.72;;
14030;SDS011;7090;49.436;8.490;2023-09-12T04:08:00;4.35;;;4.00;;
14030;SDS011;7090;49.436;8.490;2023-09-12T04:10:25;4.93;;;4.63;;
14030;SDS011;7090;49.436;8.490;2023-09-12T04:12:51;3.97;;;3.70;;
14030;SDS011;7090;49.436;8.490;2023-09-12T04:15:16;3.40;;;3.30;;
14030;SDS011;7090;49.436;8.490;2023-09-12T04:17:42;3.13;;;3.03;;
14030;SDS011;7090;49.436;8.490;2023-09-12T04:20:08;3.75;;;3.55;;
14030;SDS011;7090;49.436;8.490;2023-09-12T04:22:34;3.20;;;3.10;;
14030;SDS011;7090;49.436;8.490;2023-09-12T04:24:59;2.90;;;2.80;;
14030;SDS011;7090;49.436;8.490;2023-09-12T04:27:25;2.92;;;2.83;;
14030;SDS011;7090;49.436;8.490;2023-09-12T04:29:50;3.10;;;3.00;;
14030;SDS011;7090;49.436;8.490;2023-09-12T04:32:16;3.20;;;3.10;;
14030;SDS011;7090;49.436;8.490;2023-09-12T04:34:48;3.22;;;3.13;;
14030;SDS011;7090;49.436;8.490;2023-09-12T04:37:16;4.22;;;3.83;;
14030;SDS011;7090;49.436;8.490;2023-09-12T04:39:42;3.20;;;3.10;;
14030;SDS011;7090;49.436;8.490;2023-09-12T04:42:08;4.95;;;4.55;;
14030;SDS011;7090;49.436;8.490;2023-09-12T04:44:34;10.02;;;4.13;;
14030;SDS011;7090;49.436;8.490;2023-09-12T04:47:04;2.70;;;2.60;;
14030;SDS011;7090;49.436;8.490;2023-09-12T04:49:30;3.83;;;3.72;;
14030;SDS011;7090;49.436;8.490;2023-09-12T04:51:56;2.80;;;2.70;;
14030;SDS011;7090;49.436;8.490;2023-09-12T04:54:21;3.00;;;2.90;;
14030;SDS011;7090;49.436;8.490;2023-09-12T04:56:47;2.85;;;2.75;;
14030;SDS011;7090;49.436;8.490;2023-09-12T04:59:12;3.30;;;3.20;;
14030;SDS011;7090;49.436;8.490;2023-09-12T05:01:38;3.30;;;3.20;;
14030;SDS011;7090;49.436;8.490;2023-09-12T05:04:04;3.97;;;3.78;;
14030;SDS011;7090;49.436;8.490;2023-09-12T05:06:29;3.20;;;3.10;;
14030;SDS011;7090;49.436;8.490;2023-09-12T05:08:55;3.10;;;3.00;;
14030;SDS011;7090;49.436;8.490;2023-09-12T05:11:24;2.75;;;2.65;;
14030;SDS011;7090;49.436;8.490;2023-09-12T05:13:50;2.80;;;2.70;;
14030;SDS011;7090;49.436;8.490;2023-09-12T05:16:16;3.50;;;3.38;;
14030;SDS011;7090;49.436;8.490;2023-09-12T05:18:41;3.20;;;3.10;;
14030;SDS011;7090;49.436;8.490;2023-09-12T05:21:07;4.28;;;4.07;;
14030;SDS011;7090;49.436;8.490;2023-09-12T05:23:32;4.50;;;4.20;;
14030;SDS011;7090;49.436;8.490;2023-09-12T05:25:58;4.28;;;3.92;;
14030;SDS011;7090;49.436;8.490;2023-09-12T05:28:24;6.72;;;5.82;;
14030;SDS011;7090;49.436;8.490;2023-09-12T05:30:49;3.67;;;3.58;;
14030;SDS011;7090;49.436;8.490;2023-09-12T05:33:16;2.80;;;2.70;;
14030;SDS011;7090;49.436;8.490;2023-09-12T05:35:42;3.35;;;3.25;;
14030;SDS011;7090;49.436;8.490;2023-09-12T05:38:09;3.38;;;3.28;;
14030;SDS011;7090;49.436;8.490;2023-09-12T05:40:35;5.80;;;5.25;;
14030;SDS011;7090;49.436;8.490;2023-09-12T05:43:00;4.72;;;4.38;;
14030;SDS011;7090;49.436;8.490;2023-09-12T05:45:26;4.50;;;4.20;;
14030;SDS011;7090;49.436;8.490;2023-09-12T05:47:54;2.63;;;2.53;;
14030;SDS011;7090;49.436;8.490;2023-09-12T05:50:20;3.65;;;3.45;;
14030;SDS011;7090;49.436;8.490;2023-09-12T05:52:45;2.75;;;2.65;;
14030;SDS011;7090;49.436;8.490;2023-09-12T05:55:11;3.40;;;3.30;;
14030;SDS011;7090;49.436;8.490;2023-09-12T05:57:37;2.60;;;2.50;;
14030;SDS011;7090;49.436;8.490;2023-09-12T06:00:02;2.78;;;2.67;;
14030;SDS011;7090;49.436;8.490;2023-09-12T06:02:35;9.25;;;4.47;;
14030;SDS011;7090;49.436;8.490;2023-09-12T06:05:00;3.15;;;3.05;;
14030;SDS011;7090;49.436;8.490;2023-09-12T06:07:26;5.05;;;4.72;;
14030;SDS011;7090;49.436;8.490;2023-09-12T06:09:51;3.20;;;3.10;;
14030;SDS011;7090;49.436;8.490;2023-09-12T06:12:17;3.30;;;3.20;;
14030;SDS011;7090;49.436;8.490;2023-09-12T06:14:43;4.13;;;4.03;;
14030;SDS011;7090;49.436;8.490;2023-09-12T06:17:08;3.30;;;3.20;;
14030;SDS011;7090;49.436;8.490;2023-09-12T06:19:34;4.93;;;4.72;;
14030;SDS011;7090;49.436;8.490;2023-09-12T06:22:00;4.97;;;4.78;;
14030;SDS011;7090;49.436;8.490;2023-09-12T06:24:26;6.57;;;4.93;;
14030;SDS011;7090;49.436;8.490;2023-09-12T06:26:51;5.33;;;5.03;;
14030;SDS011;7090;49.436;8.490;2023-09-12T06:29:17;4.88;;;4.72;;
14030;SDS011;7090;49.436;8.490;2023-09-12T06:31:42;5.80;;;5.60;;
14030;SDS011;7090;49.436;8.490;2023-09-12T06:34:08;6.80;;;6.40;;
14030;SDS011;7090;49.436;8.490;2023-09-12T06:36:35;5.70;;;5.50;;
14030;SDS011;7090;49.436;8.490;2023-09-12T06:39:00;6.80;;;6.35;;
14030;SDS011;7090;49.436;8.490;2023-09-12T06:41:26;5.88;;;5.68;;
14030;SDS011;7090;49.436;8.490;2023-09-12T06:43:52;6.75;;;6.43;;
14030;SDS011;7090;49.436;8.490;2023-09-12T06:46:18;7.45;;;6.25;;
14030;SDS011;7090;49.436;8.490;2023-09-12T06:48:44;5.10;;;4.90;;
14030;SDS011;7090;49.436;8.490;2023-09-12T06:51:11;5.93;;;5.68;;
14030;SDS011;7090;49.436;8.490;2023-09-12T06:53:37;7.30;;;6.85;;
14030;SDS011;7090;49.436;8.490;2023-09-12T06:56:03;6.72;;;6.43;;
14030;SDS011;7090;49.436;8.490;2023-09-12T06:58:29;7.57;;;7.07;;
14030;SDS011;7090;49.436;8.490;2023-09-12T07:00:55;8.70;;;8.07;;
14030;SDS011;7090;49.436;8.490;2023-09-12T07:03:20;5.38;;;5.18;;
14030;SDS011;7090;49.436;8.490;2023-09-12T07:05:46;6.70;;;6.35;;
14030;SDS011;7090;49.436;8.490;2023-09-12T07:08:11;7.22;;;6.75;;
14030;SDS011;7090;49.436;8.490;2023-09-12T07:10:37;5.32;;;5.13;;
14030;SDS011;7090;49.436;8.490;2023-09-12T07:13:10;8.05;;;7.30;;
14030;SDS011;7090;49.436;8.490;2023-09-12T07:15:36;6.55;;;6.28;;
14030;SDS011;7090;49.436;8.490;2023-09-12T07:18:01;7.95;;;7.55;;
14030;SDS011;7090;49.436;8.490;2023-09-12T07:20:27;6.50;;;6.20;;
14030;SDS011;7090;49.436;8.490;2023-09-12T07:22:52;10.38;;;8.38;;
14030;SDS011;7090;49.436;8.490;2023-09-12T07:25:18;6.88;;;6.55;;
14030;SDS011;7090;49.436;8.490;2023-09-12T07:27:45;8.77;;;8.00;;
14030;SDS011;7090;49.436;8.490;2023-09-12T07:30:11;8.30;;;7.53;;
14030;SDS011;7090;49.436;8.490;2023-09-12T07:32:37;7.72;;;7.22;;
14030;SDS011;7090;49.436;8.490;2023-09-12T07:35:02;12.55;;;9.90;;
14030;SDS011;7090;49.436;8.490;2023-09-12T07:37:28;7.50;;;7.07;;
14030;SDS011;7090;49.436;8.490;2023-09-12T07:39:54;8.32;;;7.63;;
14030;SDS011;7090;49.436;8.490;2023-09-12T07:42:23;9.32;;;8.38;;
14030;SDS011;7090;49.436;8.490;2023-09-12T07:44:48;8.38;;;7.88;;
14030;SDS011;7090;49.436;8.490;2023-09-12T07:47:14;10.45;;;8.68;;
14030;SDS011;7090;49.436;8.490;2023-09-12T07:49:40;8.82;;;7.97;;
14030;SDS011;7090;49.436;8.490;2023-09-12T07:52:06;8.07;;;7.40;;
14030;SDS011;7090;49.436;8.490;2023-09-12T07:54:31;13.07;;;7.95;;
14030;SDS011;7090;49.436;8.490;2023-09-12T07:56:57;9.80;;;8.25;;
14030;SDS011;7090;49.436;8.490;2023-09-12T07:59:23;8.32;;;7.70;;
14030;SDS011;7090;49.436;8.490;2023-09-12T08:01:49;6.88;;;6.38;;
14030;SDS011;7090;49.436;8.490;2023-09-12T08:04:15;10.48;;;7.78;;
14030;SDS011;7090;49.436;8.490;2023-09-12T08:06:41;9.77;;;9.15;;
14030;SDS011;7090;49.436;8.490;2023-09-12T08:09:07;7.35;;;6.82;;
14030;SDS011;7090;49.436;8.490;2023-09-12T08:11:33;9.77;;;7.47;;
14030;SDS011;7090;49.436;8.490;2023-09-12T08:13:59;10.32;;;9.43;;
14030;SDS011;7090;49.436;8.490;2023-09-12T08:16:24;12.70;;;9.50;;
14030;SDS011;7090;49.436;8.490;2023-09-12T08:18:50;7.70;;;7.20;;
14030;SDS011;7090;49.436;8.490;2023-09-12T08:21:15;5.65;;;5.45;;
14030;SDS011;7090;49.436;8.490;2023-09-12T08:23:41;7.22;;;6.75;;
14030;SDS011;7090;49.436;8.490;2023-09-12T08:26:06;8.45;;;7.82;;
14030;SDS011;7090;49.436;8.490;2023-09-12T08:28:34;8.40;;;7.70;;
14030;SDS011;7090;49.436;8.490;2023-09-12T08:30:59;6.95;;;6.40;;
14030;SDS011;7090;49.436;8.490;2023-09-12T08:33:25;10.82;;;9.75;;
14030;SDS011;7090;49.436;8.490;2023-09-12T08:35:51;9.63;;;8.73;;
14030;SDS011;7090;49.436;8.490;2023-09-12T08:38:16;8.40;;;7.60;;
14030;SDS011;7090;49.436;8.490;2023-09-12T08:40:47;14.07;;;9.38;;
14030;SDS011;7090;49.436;8.490;2023-09-12T08:43:16;18.42;;;8.25;;
14030;SDS011;7090;49.436;8.490;2023-09-12T08:45:42;10.65;;;9.50;;
14030;SDS011;7090;49.436;8.490;2023-09-12T08:48:11;7.68;;;7.05;;
14030;SDS011;7090;49.436;8.490;2023-09-12T08:50:37;15.18;;;10.90;;
14030;SDS011;7090;49.436;8.490;2023-09-12T08:53:03;12.32;;;9.02;;
14030;SDS011;7090;49.436;8.490;2023-09-12T08:55:29;8.57;;;7.97;;
14030;SDS011;7090;49.436;8.490;2023-09-12T08:57:58;7.75;;;7.18;;
14030;SDS011;7090;49.436;8.490;2023-09-12T09:00:24;6.65;;;6.20;;
14030;SDS011;7090;49.436;8.490;2023-09-12T09:02:52;9.70;;;8.32;;
14030;SDS011;7090;49.436;8.490;2023-09-12T09:05:20;10.70;;;9.63;;
14030;SDS011;7090;49.436;8.490;2023-09-12T09:07:47;16.65;;;9.80;;
14030;SDS011;7090;49.436;8.490;2023-09-12T09:10:14;8.93;;;8.25;;
14030;SDS011;7090;49.436;8.490;2023-09-12T09:12:42;7.70;;;6.85;;
14030;SDS011;7090;49.436;8.490;2023-09-12T09:15:43;9.27;;;8.45;;
14030;SDS011;7090;49.436;8.490;2023-09-12T09:18:03;9.30;;;8.40;;
14030;SDS011;7090;49.436;8.490;2023-09-12T09:20:32;10.23;;;9.30;;
14030;SDS011;7090;49.436;8.490;2023-09-12T09:23:03;9.80;;;8.93;;
14030;SDS011;7090;49.436;8.490;2023-09-12T09:25:39;8.95;;;8.00;;
14030;SDS011;7090;49.436;8.490;2023-09-12T09:28:18;8.60;;;7.85;;
14030;SDS011;7090;49.436;8.490;2023-09-12T09:30:46;8.35;;;7.75;;
14030;SDS011;7090;49.436;8.490;2023-09-12T09:33:19;7.97;;;7.40;;
14030;SDS011;7090;49.436;8.490;2023-09-12T09:35:46;9.30;;;8.48;;
14030;SDS011;7090;49.436;8.490;2023-09-12T09:38:12;8.95;;;8.30;;
14030;SDS011;7090;49.436;8.490;2023-09-12T09:40:41;7.22;;;6.80;;
14030;SDS011;7090;49.436;8.490;2023-09-12T09:43:10;9.90;;;8.98;;
14030;SDS011;7090;49.436;8.490;2023-09-12T09:45:45;11.80;;;9.95;;
14030;SDS011;7090;49.436;8.490;2023-09-12T09:48:17;7.25;;;6.75;;
14030;SDS011;7090;49.436;8.490;2023-09-12T09:50:46;9.45;;;8.68;;
14030;SDS011;7090;49.436;8.490;2023-09-12T09:53:12;10.38;;;9.57;;
14030;SDS011;7090;49.436;8.490;2023-09-12T09:55:38;13.02;;;9.00;;
14030;SDS011;7090;49.436;8.490;2023-09-12T09:58:06;9.90;;;9.02;;
14030;SDS011;7090;49.436;8.490;2023-09-12T10:00:36;7.90;;;7.43;;
14030;SDS011;7090;49.436;8.490;2023-09-12T10:03:05;9.57;;;8.82;;
14030;SDS011;7090;49.436;8.490;2023-09-12T10:05:32;10.77;;;9.65;;
14030;SDS011;7090;49.436;8.490;2023-09-12T10:07:58;10.23;;;9.32;;
14030;SDS011;7090;49.436;8.490;2023-09-12T10:10:27;11.18;;;10.15;;
14030;SDS011;7090;49.436;8.490;2023-09-12T10:12:58;9.82;;;8.98;;
14030;SDS011;7090;49.436;8.490;2023-09-12T10:15:28;8.43;;;7.97;;
14030;SDS011;7090;49.436;8.490;2023-09-12T10:17:56;11.95;;;10.70;;
14030;SDS011;7090;49.436;8.490;2023-09-12T10:20:32;9.30;;;8.77;;
14030;SDS011;7090;49.436;8.490;2023-09-12T10:23:06;12.35;;;10.77;;
14030;SDS011;7090;49.436;8.490;2023-09-12T10:25:36;8.80;;;8.27;;
14030;SDS011;7090;49.436;8.490;2023-09-12T10:28:04;7.95;;;7.50;;
14030;SDS011;7090;49.436;8.490;2023-09-12T10:30:31;9.52;;;8.75;;
14030;SDS011;7090;49.436;8.490;2023-09-12T10:32:57;6.25;;;6.05;;
14030;SDS011;7090;49.436;8.490;2023-09-12T10:35:25;9.63;;;8.68;;
14030;SDS011;7090;49.436;8.490;2023-09-12T10:37:52;13.15;;;9.10;;
14030;SDS011;7090;49.436;8.490;2023-09-12T10:43:16;8.73;;;8.23;;
14030;SDS011;7090;49.436;8.490;2023-09-12T10:45:42;7.10;;;6.80;;
14030;SDS011;7090;49.436;8.490;2023-09-12T10:48:09;10.35;;;9.55;;
14030;SDS011;7090;49.436;8.490;2023-09-12T10:50:36;9.68;;;8.68;;
14030;SDS011;7090;49.436;8.490;2023-09-12T10:53:10;7.25;;;6.90;;
14030;SDS011;7090;49.436;8.490;2023-09-12T10:55:57;12.80;;;7.78;;
14030;SDS011;7090;49.436;8.490;2023-09-12T11:01:29;8.15;;;7.60;;
14030;SDS011;7090;49.436;8.490;2023-09-12T11:03:56;8.20;;;7.57;;
14030;SDS011;7090;49.436;8.490;2023-09-12T11:06:28;8.20;;;7.70;;
14030;SDS011;7090;49.436;8.490;2023-09-12T11:11:42;7.72;;;7.22;;
14030;SDS011;7090;49.436;8.490;2023-09-12T11:14:09;8.60;;;8.02;;
14030;SDS011;7090;49.436;8.490;2023-09-12T11:16:35;6.43;;;6.13;;
14030;SDS011;7090;49.436;8.490;2023-09-12T11:21:49;5.88;;;5.60;;
14030;SDS011;7090;49.436;8.490;2023-09-12T11:24:16;10.50;;;9.43;;
14030;SDS011;7090;49.436;8.490;2023-09-12T11:26:58;8.73;;;8.13;;
14030;SDS011;7090;49.436;8.490;2023-09-12T11:29:35;11.77;;;10.60;;
14030;SDS011;7090;49.436;8.490;2023-09-12T11:32:02;6.03;;;5.82;;
14030;SDS011;7090;49.436;8.490;2023-09-12T11:34:29;13.50;;;8.18;;
14030;SDS011;7090;49.436;8.490;2023-09-12T11:37:03;8.75;;;8.25;;
14030;SDS011;7090;49.436;8.490;2023-09-12T11:39:32;7.57;;;7.18;;
14030;SDS011;7090;49.436;8.490;2023-09-12T11:42:00;9.93;;;9.23;;
14030;SDS011;7090;49.436;8.490;2023-09-12T11:44:26;9.38;;;8.52;;
14030;SDS011;7090;49.436;8.490;2023-09-12T11:46:53;7.65;;;7.32;;
14030;SDS011;7090;49.436;8.490;2023-09-12T11:49:19;9.40;;;8.80;;
14030;SDS011;7090;49.436;8.490;2023-09-12T11:51:49;8.63;;;8.13;;
14030;SDS011;7090;49.436;8.490;2023-09-12T11:54:20;7.93;;;7.57;;
14030;SDS011;7090;49.436;8.490;2023-09-12T11:56:51;12.15;;;11.15;;
14030;SDS011;7090;49.436;8.490;2023-09-12T11:59:28;8.93;;;8.23;;
14030;SDS011;7090;49.436;8.490;2023-09-12T12:01:54;9.55;;;8.85;;
14030;SDS011;7090;49.436;8.490;2023-09-12T12:04:24;8.00;;;7.60;;
14030;SDS011;7090;49.436;8.490;2023-09-12T12:06:50;10.23;;;9.27;;
14030;SDS011;7090;49.436;8.490;2023-09-12T12:09:17;7.55;;;7.25;;
14030;SDS011;7090;49.436;8.490;2023-09-12T12:11:44;10.45;;;9.65;;
14030;SDS011;7090;49.436;8.490;2023-09-12T12:14:13;6.90;;;6.70;;
14030;SDS011;7090;49.436;8.490;2023-09-12T12:16:41;7.32;;;7.03;;
14030;SDS011;7090;49.436;8.490;2023-09-12T12:19:07;10.05;;;9.23;;
14030;SDS011;7090;49.436;8.490;2023-09-12T12:21:34;10.77;;;9.98;;
14030;SDS011;7090;49.436;8.490;2023-09-12T12:24:00;9.35;;;8.85;;
14030;SDS011;7090;49.436;8.490;2023-09-12T12:26:27;9.95;;;9.35;;
14030;SDS011;7090;49.436;8.490;2023-09-12T12:28:54;9.80;;;9.20;;
14030;SDS011;7090;49.436;8.490;2023-09-12T12:31:20;11.93;;;11.02;;
14030;SDS011;7090;49.436;8.490;2023-09-12T12:33:49;8.35;;;7.95;;
14030;SDS011;7090;49.436;8.490;2023-09-12T12:36:18;7.28;;;6.97;;
14030;SDS011;7090;49.436;8.490;2023-09-12T12:38:45;9.70;;;8.85;;
14030;SDS011;7090;49.436;8.490;2023-09-12T12:41:12;7.25;;;6.95;;
14030;SDS011;7090;49.436;8.490;2023-09-12T12:43:46;7.65;;;7.35;;
14030;SDS011;7090;49.436;8.490;2023-09-12T12:46:16;7.30;;;7.00;;
14030;SDS011;7090;49.436;8.490;2023-09-12T12:48:44;7.78;;;7.38;;
14030;SDS011;7090;49.436;8.490;2023-09-12T12:53:44;7.75;;;7.25;;
14030;SDS011;7090;49.436;8.490;2023-09-12T12:56:16;8.15;;;7.80;;
14030;SDS011;7090;49.436;8.490;2023-09-12T12:58:47;8.85;;;8.40;;
14030;SDS011;7090;49.436;8.490;2023-09-12T13:01:14;10.85;;;10.07;;
14030;SDS011;7090;49.436;8.490;2023-09-12T13:03:41;8.55;;;8.15;;
14030;SDS011;7090;49.436;8.490;2023-09-12T13:06:07;9.38;;;8.82;;
14030;SDS011;7090;49.436;8.490;2023-09-12T13:08:38;9.90;;;9.30;;
14030;SDS011;7090;49.436;8.490;2023-09-12T13:11:05;7.40;;;7.10;;
14030;SDS011;7090;49.436;8.490;2023-09-12T13:13:30;8.35;;;7.95;;
14030;SDS011;7090;49.436;8.490;2023-09-12T13:15:56;8.25;;;7.85;;
14030;SDS011;7090;49.436;8.490;2023-09-12T13:18:22;8.05;;;7.68;;
14030;SDS011;7090;49.436;8.490;2023-09-12T13:20:48;9.82;;;9.23;;
14030;SDS011;7090;49.436;8.490;2023-09-12T13:23:13;28.70;;;10.32;;
14030;SDS011;7090;49.436;8.490;2023-09-12T13:25:39;7.97;;;7.55;;
14030;SDS011;7090;49.436;8.490;2023-09-12T13:28:04;8.07;;;7.78;;
14030;SDS011;7090;49.436;8.490;2023-09-12T13:30:30;10.85;;;10.15;;
14030;SDS011;7090;49.436;8.490;2023-09-12T13:32:55;7.60;;;7.30;;
14030;SDS011;7090;49.436;8.490;2023-09-12T13:35:21;10.82;;;10.13;;
14030;SDS011;7090;49.436;8.490;2023-09-12T13:37:46;8.55;;;8.15;;
14030;SDS011;7090;49.436;8.490;2023-09-12T13:40:12;8.57;;;8.07;;
14030;SDS011;7090;49.436;8.490;2023-09-12T13:42:38;8.30;;;7.90;;
14030;SDS011;7090;49.436;8.490;2023-09-12T13:45:04;8.32;;;7.82;;
14030;SDS011;7090;49.436;8.490;2023-09-12T13:47:30;10.35;;;9.55;;
14030;SDS011;7090;49.436;8.490;2023-09-12T13:49:57;7.95;;;7.55;;
14030;SDS011;7090;49.436;8.490;2023-09-12T13:52:25;8.35;;;7.90;;
14030;SDS011;7090;49.436;8.490;2023-09-12T13:54:52;9.55;;;8.95;;
14030;SDS011;7090;49.436;8.490;2023-09-12T13:57:17;9.80;;;9.10;;
14030;SDS011;7090;49.436;8.490;2023-09-12T13:59:43;7.53;;;7.22;;
14030;SDS011;7090;49.436;8.490;2023-09-12T14:02:09;8.07;;;7.60;;
14030;SDS011;7090;49.436;8.490;2023-09-12T14:04:35;7.50;;;7.20;;
14030;SDS011;7090;49.436;8.490;2023-09-12T14:07:00;8.23;;;7.93;;
14030;SDS011;7090;49.436;8.490;2023-09-12T14:09:27;8.50;;;8.13;;
14030;SDS011;7090;49.436;8.490;2023-09-12T14:11:53;8.38;;;7.97;;
14030;SDS011;7090;49.436;8.490;2023-09-12T14:14:18;7.85;;;7.53;;
14030;SDS011;7090;49.436;8.490;2023-09-12T14:16:44;8.20;;;7.80;;
14030;SDS011;7090;49.436;8.490;2023-09-12T14:19:10;7.85;;;7.45;;
14030;SDS011;7090;49.436;8.490;2023-09-12T14:21:36;8.10;;;7.70;;
14030;SDS011;7090;49.436;8.490;2023-09-12T14:24:02;7.75;;;7.45;;
14030;SDS011;7090;49.436;8.490;2023-09-12T14:26:28;7.60;;;7.30;;
14030;SDS011;7090;49.436;8.490;2023-09-12T14:28:53;7.63;;;7.32;;
14030;SDS011;7090;49.436;8.490;2023-09-12T14:31:20;8.38;;;7.88;;
14030;SDS011;7090;49.436;8.490;2023-09-12T14:33:48;7.82;;;7.53;;
14030;SDS011;7090;49.436;8.490;2023-09-12T14:36:14;7.68;;;7.38;;
14030;SDS011;7090;49.436;8.490;2023-09-12T14:38:39;8.32;;;7.55;;
14030;SDS011;7090;49.436;8.490;2023-09-12T14:41:05;8.15;;;7.75;;
14030;SDS011;7090;49.436;8.490;2023-09-12T14:43:31;8.55;;;8.15;;
14030;SDS011;7090;49.436;8.490;2023-09-12T14:45:56;7.75;;;7.45;;
14030;SDS011;7090;49.436;8.490;2023-09-12T14:48:22;8.18;;;7.85;;
14030;SDS011;7090;49.436;8.490;2023-09-12T14:50:47;7.53;;;7.22;;
14030;SDS011;7090;49.436;8.490;2023-09-12T14:53:16;7.88;;;7.57;;
14030;SDS011;7090;49.436;8.490;2023-09-12T14:55:42;9.55;;;9.05;;
14030;SDS011;7090;49.436;8.490;2023-09-12T14:58:08;8.25;;;7.68;;
14030;SDS011;7090;49.436;8.490;2023-09-12T15:00:33;7.50;;;7.20;;
14030;SDS011;7090;49.436;8.490;2023-09-12T15:03:03;8.63;;;8.23;;
14030;SDS011;7090;49.436;8.490;2023-09-12T15:05:29;8.27;;;7.88;;
14030;SDS011;7090;49.436;8.490;2023-09-12T15:07:54;8.50;;;8.10;;
14030;SDS011;7090;49.436;8.490;2023-09-12T15:10:20;8.05;;;7.75;;
14030;SDS011;7090;49.436;8.490;2023-09-12T15:12:45;9.27;;;8.75;;
14030;SDS011;7090;49.436;8.490;2023-09-12T15:15:11;7.47;;;7.18;;
14030;SDS011;7090;49.436;8.490;2023-09-12T15:17:37;10.23;;;7.95;;
14030;SDS011;7090;49.436;8.490;2023-09-12T15:20:03;7.07;;;6.78;;